Time,TemperatureF,DewpointF,PressureIn,WindDirection,WindDirectionDegrees,WindSpeedMPH,WindSpeedGustMPH,Humidity,HourlyPrecipIn,Conditions,Clouds,dailyrainin,SoftwareType,DateUTC
2013-05-05 00:00:00,55.7,49.6,29.83,South,182,2.0,8.0,80,0.00,,---,0.00,VWS V14.01,2013-05-05 07:00:00,
2013-05-05 00:02:00,55.7,49.6,29.83,SSE,163,0.0,4.0,80,0.00,,---,0.00,VWS V14.01,2013-05-05 07:02:00,
2013-05-05 00:07:00,55.6,49.5,29.83,South,182,1.0,9.0,80,0.00,,---,0.00,VWS V14.01,2013-05-05 07:07:00,
2013-05-05 00:12:00,55.5,49.8,29.83,SSW,207,1.0,9.0,81,0.00,,---,0.00,VWS V14.01,2013-05-05 07:12:00,
2013-05-05 00:15:00,55.4,49.7,29.83,South,178,0.0,9.0,81,0.00,,---,0.00,VWS V14.01,2013-05-05 07:15:00,
2013-05-05 00:17:00,55.4,49.7,29.82,South,182,2.0,2.0,81,0.00,,---,0.00,VWS V14.01,2013-05-05 07:17:00,
2013-05-05 00:22:00,55.3,49.9,29.83,South,171,2.0,6.0,82,0.00,,---,0.00,VWS V14.01,2013-05-05 07:22:00,
2013-05-05 00:27:00,55.2,49.8,29.83,South,184,0.0,6.0,82,0.00,,---,0.00,VWS V14.01,2013-05-05 07:27:00,
2013-05-05 00:30:00,55.2,49.8,29.83,SSE,163,5.0,6.0,82,0.00,,---,0.00,VWS V14.01,2013-05-05 07:30:00,
2013-05-05 00:32:00,55.1,49.4,29.82,SSE,156,6.0,6.0,81,0.00,,---,0.00,VWS V14.01,2013-05-05 07:32:00,
2013-05-05 00:37:00,55.1,49.0,29.83,SE,142,0.0,9.0,80,0.00,,---,0.00,VWS V14.01,2013-05-05 07:37:00,
2013-05-05 00:42:00,55.1,48.4,29.83,SSE,161,0.0,9.0,78,0.00,,---,0.00,VWS V14.01,2013-05-05 07:42:00,
2013-05-05 00:45:00,55.1,48.4,29.83,SSE,161,0.0,9.0,78,0.00,,---,0.00,VWS V14.01,2013-05-05 07:45:00,
2013-05-05 00:47:00,55.1,48.0,29.83,SSE,157,0.0,5.0,77,0.00,,---,0.00,VWS V14.01,2013-05-05 07:47:00,
2013-05-05 00:52:00,55.3,47.9,29.83,SSE,156,0.0,5.0,76,0.00,,---,0.00,VWS V14.01,2013-05-05 07:52:00,
2013-05-05 00:57:00,55.4,47.6,29.83,ESE,118,0.0,8.0,75,0.00,,---,0.00,VWS V14.01,2013-05-05 07:57:00,
2013-05-05 01:00:00,55.6,47.8,29.82,SE,144,3.0,8.0,75,0.00,,---,0.00,VWS V14.01,2013-05-05 08:00:00,
2013-05-05 01:02:00,55.7,47.9,29.82,SE,142,0.0,3.0,75,0.00,,---,0.00,VWS V14.01,2013-05-05 08:02:00,
2013-05-05 01:07:00,55.8,47.7,29.82,SE,146,0.0,4.0,74,0.00,,---,0.00,VWS V14.01,2013-05-05 08:07:00,
2013-05-05 01:12:00,55.9,47.7,29.82,SE,134,0.0,4.0,74,0.00,,---,0.00,VWS V14.01,2013-05-05 08:12:00,
2013-05-05 01:15:00,55.9,47.7,29.82,SE,140,1.0,4.0,74,0.00,,---,0.00,VWS V14.01,2013-05-05 08:15:00,
2013-05-05 01:17:00,55.9,47.7,29.82,ESE,107,0.0,5.0,74,0.00,,---,0.00,VWS V14.01,2013-05-05 08:17:00,
2013-05-05 01:22:00,56.0,47.5,29.82,ESE,119,1.0,5.0,73,0.00,,---,0.00,VWS V14.01,2013-05-05 08:22:00,
2013-05-05 01:27:00,56.1,47.6,29.82,East,84,0.0,5.0,73,0.00,,---,0.00,VWS V14.01,2013-05-05 08:27:00,
2013-05-05 01:30:00,56.0,47.5,29.82,ESE,107,5.0,5.0,73,0.00,,---,0.00,VWS V14.01,2013-05-05 08:30:00,
2013-05-05 01:32:00,56.1,47.6,29.82,ESE,111,0.0,7.0,73,0.00,,---,0.00,VWS V14.01,2013-05-05 08:32:00,
2013-05-05 01:37:00,56.1,47.6,29.82,ESE,110,0.0,7.0,73,0.00,,---,0.00,VWS V14.01,2013-05-05 08:37:00,
2013-05-05 01:42:00,56.0,47.5,29.82,SSE,148,0.0,7.0,73,0.00,,---,0.00,VWS V14.01,2013-05-05 08:42:00,
2013-05-05 01:45:00,56.0,47.5,29.82,SE,133,0.0,7.0,73,0.00,,---,0.00,VWS V14.01,2013-05-05 08:45:00,
2013-05-05 01:47:00,56.0,47.5,29.82,South,178,1.0,5.0,73,0.00,,---,0.00,VWS V14.01,2013-05-05 08:47:00,
2013-05-05 01:52:00,56.0,48.5,29.82,South,179,0.0,5.0,76,0.00,,---,0.00,VWS V14.01,2013-05-05 08:52:00,
2013-05-05 01:58:00,56.1,49.3,29.82,South,178,0.0,5.0,78,0.00,,---,0.00,VWS V14.01,2013-05-05 08:58:00,
2013-05-05 02:03:00,56.0,49.2,29.82,South,178,0.0,3.0,78,0.00,,---,0.00,VWS V14.01,2013-05-05 09:03:00,
2013-05-05 02:08:00,55.9,49.2,29.82,South,169,0.0,3.0,78,0.00,,---,0.00,VWS V14.01,2013-05-05 09:08:00,
2013-05-05 02:13:00,55.9,49.2,29.81,SSE,168,0.0,3.0,78,0.00,,---,0.00,VWS V14.01,2013-05-05 09:13:00,
2013-05-05 02:15:00,55.8,49.0,29.81,South,169,0.0,3.0,78,0.00,,---,0.00,VWS V14.01,2013-05-05 09:15:00,
2013-05-05 02:18:00,55.8,48.7,29.81,East,99,3.0,4.0,77,0.00,,---,0.00,VWS V14.01,2013-05-05 09:18:00,
2013-05-05 02:23:00,55.6,48.2,29.81,East,101,0.0,4.0,76,0.00,,---,0.00,VWS V14.01,2013-05-05 09:23:00,
2013-05-05 02:28:00,55.4,48.0,29.82,East,101,0.0,4.0,76,0.00,,---,0.00,VWS V14.01,2013-05-05 09:28:00,
2013-05-05 02:30:00,55.3,47.9,29.82,East,101,0.0,4.0,76,0.00,,---,0.00,VWS V14.01,2013-05-05 09:30:00,
2013-05-05 02:33:00,55.3,47.5,29.82,East,100,0.0,0.0,75,0.00,,---,0.00,VWS V14.01,2013-05-05 09:33:00,
2013-05-05 02:38:00,55.1,47.0,29.82,East,101,0.0,0.0,74,0.00,,---,0.00,VWS V14.01,2013-05-05 09:38:00,
2013-05-05 02:43:00,55.0,46.9,29.82,East,92,2.0,4.0,74,0.00,,---,0.00,VWS V14.01,2013-05-05 09:43:00,
2013-05-05 02:45:00,54.9,46.4,29.82,East,91,0.0,4.0,73,0.00,,---,0.00,VWS V14.01,2013-05-05 09:45:00,
2013-05-05 02:48:00,54.9,46.8,29.82,East,91,2.0,4.0,74,0.00,,---,0.00,VWS V14.01,2013-05-05 09:48:00,
2013-05-05 02:53:00,54.9,46.4,29.82,NE,47,3.0,6.0,73,0.00,,---,0.00,VWS V14.01,2013-05-05 09:53:00,
2013-05-05 02:58:00,54.8,46.0,29.82,NE,53,2.0,6.0,72,0.00,,---,0.00,VWS V14.01,2013-05-05 09:58:00,
2013-05-05 03:00:00,54.8,46.0,29.82,NE,52,0.0,6.0,72,0.00,,---,0.00,VWS V14.01,2013-05-05 10:00:00,
2013-05-05 03:03:00,54.7,45.9,29.82,NE,52,0.0,0.0,72,0.00,,---,0.00,VWS V14.01,2013-05-05 10:03:00,
2013-05-05 03:08:00,54.8,46.0,29.82,NE,53,0.0,0.0,72,0.00,,---,0.00,VWS V14.01,2013-05-05 10:08:00,
2013-05-05 03:13:00,54.8,46.3,29.82,NE,53,0.0,0.0,73,0.00,,---,0.00,VWS V14.01,2013-05-05 10:13:00,
2013-05-05 03:15:00,54.9,46.4,29.82,NE,52,0.0,0.0,73,0.00,,---,0.00,VWS V14.01,2013-05-05 10:15:00,
2013-05-05 03:18:00,54.9,46.4,29.82,NE,53,0.0,0.0,73,0.00,,---,0.00,VWS V14.01,2013-05-05 10:18:00,
2013-05-05 03:23:00,54.9,46.4,29.82,NE,53,0.0,0.0,73,0.00,,---,0.00,VWS V14.01,2013-05-05 10:23:00,
2013-05-05 03:28:00,55.0,47.2,29.82,NE,53,0.0,0.0,75,0.00,,---,0.00,VWS V14.01,2013-05-05 10:28:00,
2013-05-05 03:30:00,55.1,47.3,29.82,NE,52,0.0,0.0,75,0.00,,---,0.00,VWS V14.01,2013-05-05 10:30:00,
2013-05-05 03:33:00,55.2,47.8,29.82,ENE,68,0.0,3.0,76,0.00,,---,0.00,VWS V14.01,2013-05-05 10:33:00,
2013-05-05 03:38:00,55.5,49.1,29.81,ENE,68,0.0,3.0,79,0.00,,---,0.00,VWS V14.01,2013-05-05 10:38:00,
2013-05-05 03:43:00,55.6,49.5,29.81,ENE,69,0.0,3.0,80,0.00,,---,0.00,VWS V14.01,2013-05-05 10:43:00,
2013-05-05 03:45:00,55.7,49.6,29.81,ENE,68,0.0,3.0,80,0.00,,---,0.00,VWS V14.01,2013-05-05 10:45:00,
2013-05-05 03:48:00,55.7,49.6,29.81,ENE,68,0.0,0.0,80,0.00,,---,0.00,VWS V14.01,2013-05-05 10:48:00,
2013-05-05 03:53:00,55.5,48.4,29.82,ENE,68,0.0,0.0,77,0.00,,---,0.00,VWS V14.01,2013-05-05 10:53:00,
2013-05-05 03:58:00,55.1,47.7,29.82,ENE,69,0.0,0.0,76,0.00,,---,0.00,VWS V14.01,2013-05-05 10:58:00,
2013-05-05 04:00:00,55.0,47.2,29.82,ENE,68,0.0,0.0,75,0.00,,---,0.00,VWS V14.01,2013-05-05 11:00:00,
2013-05-05 04:03:00,55.1,48.0,29.82,ENE,77,2.0,4.0,77,0.00,,---,0.00,VWS V14.01,2013-05-05 11:03:00,
2013-05-05 04:08:00,55.4,49.3,29.82,ENE,78,0.0,4.0,80,0.00,,---,0.00,VWS V14.01,2013-05-05 11:08:00,
2013-05-05 04:13:00,55.6,49.9,29.82,ENE,78,0.0,4.0,81,0.00,,---,0.00,VWS V14.01,2013-05-05 11:13:00,
2013-05-05 04:15:00,55.6,49.9,29.82,ENE,76,0.0,4.0,81,0.00,,---,0.00,VWS V14.01,2013-05-05 11:15:00,
2013-05-05 04:18:00,55.7,50.0,29.82,ENE,78,0.0,0.0,81,0.00,,---,0.00,VWS V14.01,2013-05-05 11:18:00,
2013-05-05 04:23:00,55.7,50.0,29.82,ENE,77,0.0,2.0,81,0.00,,---,0.00,VWS V14.01,2013-05-05 11:23:00,
2013-05-05 04:28:00,55.8,50.1,29.81,ENE,77,0.0,2.0,81,0.00,,---,0.00,VWS V14.01,2013-05-05 11:28:00,
2013-05-05 04:30:00,55.8,50.1,29.81,ENE,78,0.0,2.0,81,0.00,,---,0.00,VWS V14.01,2013-05-05 11:30:00,
2013-05-05 04:33:00,55.8,49.7,29.81,ENE,77,1.0,3.0,80,0.00,,---,0.00,VWS V14.01,2013-05-05 11:33:00,
2013-05-05 04:38:00,55.9,49.8,29.81,ENE,77,2.0,3.0,80,0.00,,---,0.00,VWS V14.01,2013-05-05 11:38:00,
2013-05-05 04:43:00,55.9,49.5,29.81,ENE,78,0.0,3.0,79,0.00,,---,0.00,VWS V14.01,2013-05-05 11:43:00,
2013-05-05 04:45:00,55.9,49.5,29.81,ENE,78,0.0,3.0,79,0.00,,---,0.00,VWS V14.01,2013-05-05 11:45:00,
2013-05-05 04:48:00,55.9,49.5,29.81,ENE,77,0.0,0.0,79,0.00,,---,0.00,VWS V14.01,2013-05-05 11:48:00,
2013-05-05 04:53:00,55.9,48.5,29.81,ENE,77,3.0,4.0,76,0.00,,---,0.00,VWS V14.01,2013-05-05 11:53:00,
2013-05-05 04:58:00,55.8,48.0,29.81,ENE,76,0.0,4.0,75,0.00,,---,0.00,VWS V14.01,2013-05-05 11:58:00,
2013-05-05 05:00:00,55.7,47.5,29.81,ENE,77,0.0,4.0,74,0.00,,---,0.00,VWS V14.01,2013-05-05 12:00:00,
2013-05-05 05:03:00,55.7,47.9,29.81,ENE,77,0.0,3.0,75,0.00,,---,0.00,VWS V14.01,2013-05-05 12:03:00,
2013-05-05 05:08:00,55.9,48.1,29.82,ENE,76,3.0,3.0,75,0.00,,---,0.00,VWS V14.01,2013-05-05 12:08:00,
2013-05-05 05:13:00,56.2,48.0,29.82,ENE,78,2.0,5.0,74,0.00,,---,0.00,VWS V14.01,2013-05-05 12:13:00,
2013-05-05 05:15:00,56.2,48.0,29.82,ENE,76,0.0,5.0,74,0.00,,---,0.00,VWS V14.01,2013-05-05 12:15:00,
2013-05-05 05:18:00,56.4,47.9,29.82,ENE,78,0.0,3.0,73,0.00,,---,0.00,VWS V14.01,2013-05-05 12:18:00,
2013-05-05 05:23:00,56.6,48.1,29.82,SSE,152,0.0,5.0,73,0.00,,---,0.00,VWS V14.01,2013-05-05 12:23:00,
2013-05-05 05:28:00,56.8,47.9,29.82,SE,146,3.0,5.0,72,0.00,,---,0.00,VWS V14.01,2013-05-05 12:28:00,
2013-05-05 05:30:00,56.9,48.0,29.82,SSE,157,0.0,5.0,72,0.00,,---,0.00,VWS V14.01,2013-05-05 12:30:00,
2013-05-05 05:33:00,57.0,48.1,29.82,SSE,153,0.0,7.0,72,0.00,,---,0.00,VWS V14.01,2013-05-05 12:33:00,
2013-05-05 05:38:00,57.1,48.5,29.82,SE,145,0.0,7.0,73,0.00,,---,0.00,VWS V14.01,2013-05-05 12:38:00,
2013-05-05 05:44:00,57.1,48.9,29.82,South,186,3.0,7.0,74,0.00,,---,0.00,VWS V14.01,2013-05-05 12:44:00,
2013-05-05 05:45:00,57.1,49.3,29.82,South,179,4.0,7.0,75,0.00,,---,0.00,VWS V14.01,2013-05-05 12:45:00,
2013-05-05 05:48:00,57.1,49.6,29.83,South,179,1.0,6.0,76,0.00,,---,0.00,VWS V14.01,2013-05-05 12:48:00,
2013-05-05 05:54:00,57.0,50.2,29.83,South,191,1.0,6.0,78,0.00,,---,0.00,VWS V14.01,2013-05-05 12:54:00,
2013-05-05 05:59:00,56.9,50.5,29.83,South,181,1.0,6.0,79,0.00,,---,0.00,VWS V14.01,2013-05-05 12:59:00,
2013-05-05 06:00:00,56.8,50.4,29.83,South,184,2.0,6.0,79,0.00,,---,0.00,VWS V14.01,2013-05-05 13:00:00,
2013-05-05 06:04:00,56.7,50.3,29.83,South,191,0.0,4.0,79,0.00,,---,0.00,VWS V14.01,2013-05-05 13:04:00,
2013-05-05 06:09:00,56.6,50.5,29.84,SE,144,2.0,5.0,80,0.00,,---,0.00,VWS V14.01,2013-05-05 13:09:00,
2013-05-05 06:14:00,56.5,50.4,29.84,SSE,163,0.0,5.0,80,0.00,,---,0.00,VWS V14.01,2013-05-05 13:14:00,
2013-05-05 06:15:00,56.5,50.4,29.84,SSE,165,5.0,5.0,80,0.00,,---,0.00,VWS V14.01,2013-05-05 13:15:00,
2013-05-05 06:19:00,56.4,50.7,29.84,SSE,167,1.0,6.0,81,0.00,,---,0.00,VWS V14.01,2013-05-05 13:19:00,
2013-05-05 06:24:00,56.4,50.7,29.84,South,181,0.0,6.0,81,0.00,,---,0.00,VWS V14.01,2013-05-05 13:24:00,
2013-05-05 06:29:00,56.4,50.7,29.84,South,180,1.0,6.0,81,0.00,,---,0.00,VWS V14.01,2013-05-05 13:29:00,
2013-05-05 06:30:00,56.4,51.0,29.84,South,180,0.0,6.0,82,0.00,,---,0.00,VWS V14.01,2013-05-05 13:30:00,
2013-05-05 06:34:00,56.4,51.0,29.85,SSE,159,0.0,4.0,82,0.00,,---,0.00,VWS V14.01,2013-05-05 13:34:00,
2013-05-05 06:39:00,56.3,50.9,29.84,SSE,155,0.0,5.0,82,0.00,,---,0.00,VWS V14.01,2013-05-05 13:39:00,
2013-05-05 06:44:00,56.3,50.9,29.85,South,172,0.0,5.0,82,0.00,,---,0.00,VWS V14.01,2013-05-05 13:44:00,
2013-05-05 06:45:00,56.3,50.9,29.85,South,175,4.0,5.0,82,0.00,,---,0.00,VWS V14.01,2013-05-05 13:45:00,
2013-05-05 06:49:00,56.3,50.9,29.85,South,176,0.0,4.0,82,0.00,,---,0.00,VWS V14.01,2013-05-05 13:49:00,
2013-05-05 06:54:00,56.3,50.9,29.86,South,171,0.0,5.0,82,0.00,,---,0.00,VWS V14.01,2013-05-05 13:54:00,
2013-05-05 06:59:00,56.3,50.9,29.86,South,176,0.0,6.0,82,0.00,,---,0.00,VWS V14.01,2013-05-05 13:59:00,
2013-05-05 07:00:00,56.3,50.9,29.86,SSE,149,0.0,6.0,82,0.00,,---,0.00,VWS V14.01,2013-05-05 14:00:00,
2013-05-05 07:04:00,56.3,50.9,29.86,SSE,163,4.0,5.0,82,0.00,,---,0.00,VWS V14.01,2013-05-05 14:04:00,
2013-05-05 07:09:00,56.3,50.9,29.86,SSE,153,1.0,6.0,82,0.00,,---,0.00,VWS V14.01,2013-05-05 14:09:00,
2013-05-05 07:14:00,56.3,51.2,29.86,SSE,167,1.0,6.0,83,0.00,,---,0.00,VWS V14.01,2013-05-05 14:14:00,
2013-05-05 07:15:00,56.3,51.2,29.86,SSE,167,0.0,6.0,83,0.00,,---,0.00,VWS V14.01,2013-05-05 14:15:00,
2013-05-05 07:19:00,56.4,51.3,29.86,SSE,164,4.0,5.0,83,0.00,,---,0.00,VWS V14.01,2013-05-05 14:19:00,
2013-05-05 07:24:00,56.4,51.3,29.87,SSE,168,0.0,5.0,83,0.00,,---,0.00,VWS V14.01,2013-05-05 14:24:00,
2013-05-05 07:29:00,56.4,51.3,29.87,South,173,0.0,5.0,83,0.00,,---,0.00,VWS V14.01,2013-05-05 14:29:00,
2013-05-05 07:30:00,56.5,51.4,29.87,SE,146,2.0,5.0,83,0.00,,---,0.00,VWS V14.01,2013-05-05 14:30:00,
2013-05-05 07:34:00,56.5,51.4,29.87,South,169,0.0,4.0,83,0.00,,---,0.00,VWS V14.01,2013-05-05 14:34:00,
2013-05-05 07:39:00,56.5,51.4,29.87,SE,137,4.0,6.0,83,0.00,,---,0.00,VWS V14.01,2013-05-05 14:39:00,
2013-05-05 07:44:00,56.6,51.5,29.87,ESE,109,0.0,6.0,83,0.00,,---,0.00,VWS V14.01,2013-05-05 14:44:00,
2013-05-05 07:45:00,56.6,51.5,29.87,ESE,117,0.0,6.0,83,0.00,,---,0.00,VWS V14.01,2013-05-05 14:45:00,
2013-05-05 07:49:00,56.6,51.2,29.87,SSE,161,0.0,4.0,82,0.00,,---,0.00,VWS V14.01,2013-05-05 14:49:00,
2013-05-05 07:54:00,56.7,51.3,29.87,East,96,0.0,4.0,82,0.00,,---,0.00,VWS V14.01,2013-05-05 14:54:00,
2013-05-05 07:59:00,56.8,51.4,29.87,SSE,163,4.0,4.0,82,0.00,,---,0.00,VWS V14.01,2013-05-05 14:59:00,
2013-05-05 08:00:00,56.9,51.5,29.87,SSE,163,2.0,4.0,82,0.00,,---,0.00,VWS V14.01,2013-05-05 15:00:00,
2013-05-05 08:04:00,56.9,51.5,29.88,SW,221,4.0,6.0,82,0.00,,---,0.00,VWS V14.01,2013-05-05 15:04:00,
2013-05-05 08:09:00,57.0,51.6,29.88,SSW,209,3.0,7.0,82,0.00,,---,0.00,VWS V14.01,2013-05-05 15:09:00,
2013-05-05 08:14:00,57.1,51.7,29.88,SSW,205,2.0,7.0,82,0.00,,---,0.00,VWS V14.01,2013-05-05 15:14:00,
2013-05-05 08:15:00,57.1,52.0,29.88,SSW,205,0.0,7.0,83,0.00,,---,0.00,VWS V14.01,2013-05-05 15:15:00,
2013-05-05 08:19:00,57.2,52.1,29.88,SSW,205,0.0,3.0,83,0.00,,---,0.00,VWS V14.01,2013-05-05 15:19:00,
2013-05-05 08:24:00,57.4,52.3,29.88,SSW,194,0.0,3.0,83,0.00,,---,0.00,VWS V14.01,2013-05-05 15:24:00,
2013-05-05 08:29:00,57.6,52.2,29.88,SW,217,0.0,5.0,82,0.00,,---,0.00,VWS V14.01,2013-05-05 15:29:00,
2013-05-05 08:30:00,57.6,52.2,29.88,SW,217,1.0,5.0,82,0.00,,---,0.00,VWS V14.01,2013-05-05 15:30:00,
2013-05-05 08:34:00,57.7,52.2,29.89,SSW,213,3.0,4.0,82,0.00,,---,0.00,VWS V14.01,2013-05-05 15:34:00,
2013-05-05 08:39:00,57.7,52.2,29.89,SSW,204,3.0,8.0,82,0.00,,---,0.00,VWS V14.01,2013-05-05 15:39:00,
2013-05-05 08:44:00,57.6,51.8,29.89,South,175,0.0,8.0,81,0.00,,---,0.00,VWS V14.01,2013-05-05 15:44:00,
2013-05-05 08:45:00,57.6,51.8,29.89,SSE,165,3.0,8.0,81,0.00,,---,0.00,VWS V14.01,2013-05-05 15:45:00,
2013-05-05 08:49:00,57.6,52.2,29.89,South,188,2.0,5.0,82,0.00,,---,0.00,VWS V14.01,2013-05-05 15:49:00,
2013-05-05 08:54:00,57.5,52.1,29.89,SE,140,7.0,7.0,82,0.00,,---,0.00,VWS V14.01,2013-05-05 15:54:00,
2013-05-05 08:59:00,57.6,51.8,29.89,South,173,4.0,11.0,81,0.00,,---,0.00,VWS V14.01,2013-05-05 15:59:00,
2013-05-05 09:00:00,57.6,51.8,29.89,South,183,6.0,11.0,81,0.00,,---,0.00,VWS V14.01,2013-05-05 16:00:00,
2013-05-05 09:04:00,57.7,51.9,29.90,SW,214,4.0,7.0,81,0.00,,---,0.00,VWS V14.01,2013-05-05 16:04:00,
2013-05-05 09:09:00,58.2,52.7,29.90,SSE,152,2.0,9.0,82,0.00,,---,0.00,VWS V14.01,2013-05-05 16:09:00,
2013-05-05 09:14:00,58.7,52.6,29.90,South,169,4.0,9.0,80,0.00,,---,0.00,VWS V14.01,2013-05-05 16:14:00,
2013-05-05 09:15:00,58.9,52.8,29.89,South,188,1.0,9.0,80,0.00,,---,0.00,VWS V14.01,2013-05-05 16:15:00,
2013-05-05 09:19:00,59.0,52.5,29.90,South,178,4.0,5.0,79,0.00,,---,0.00,VWS V14.01,2013-05-05 16:19:00,
2013-05-05 09:24:00,59.0,52.2,29.90,SSE,164,2.0,11.0,78,0.00,,---,0.00,VWS V14.01,2013-05-05 16:24:00,
2013-05-05 09:29:00,59.1,52.3,29.90,South,171,1.0,11.0,78,0.00,,---,0.00,VWS V14.01,2013-05-05 16:29:00,
2013-05-05 09:30:00,59.4,52.9,29.90,South,171,0.0,11.0,79,0.00,,---,0.00,VWS V14.01,2013-05-05 16:30:00,
2013-05-05 09:34:00,59.9,52.3,29.90,SSE,168,0.0,7.0,76,0.00,,---,0.00,VWS V14.01,2013-05-05 16:34:00,
2013-05-05 09:39:00,60.2,52.6,29.90,South,175,6.0,8.0,76,0.00,,---,0.00,VWS V14.01,2013-05-05 16:39:00,
2013-05-05 09:44:00,60.8,53.5,29.90,SW,218,5.0,8.0,77,0.00,,---,0.00,VWS V14.01,2013-05-05 16:44:00,
2013-05-05 09:49:00,61.2,52.9,29.90,SE,134,0.0,7.0,74,0.00,,---,0.00,VWS V14.01,2013-05-05 16:49:00,
2013-05-05 09:54:00,62.1,53.7,29.90,South,182,0.0,7.0,74,0.00,,---,0.00,VWS V14.01,2013-05-05 16:54:00,
2013-05-05 09:59:00,63.1,53.2,29.90,SSW,209,6.0,9.0,70,0.00,,---,0.00,VWS V14.01,2013-05-05 16:59:00,
2013-05-05 10:00:00,63.2,53.7,29.90,SW,215,4.0,9.0,71,0.00,,---,0.00,VWS V14.01,2013-05-05 17:00:00,
2013-05-05 10:04:00,63.3,53.0,29.91,SSW,211,5.0,5.0,69,0.00,,---,0.00,VWS V14.01,2013-05-05 17:04:00,
2013-05-05 10:09:00,62.5,52.6,29.91,SSW,209,4.0,7.0,70,0.00,,---,0.00,VWS V14.01,2013-05-05 17:09:00,
2013-05-05 10:14:00,61.8,52.3,29.91,South,178,3.0,10.0,71,0.00,,---,0.00,VWS V14.01,2013-05-05 17:14:00,
2013-05-05 10:15:00,61.7,52.2,29.91,SSW,199,3.0,10.0,71,0.00,,---,0.00,VWS V14.01,2013-05-05 17:15:00,
2013-05-05 10:19:00,61.4,52.7,29.91,SW,229,5.0,7.0,73,0.00,,---,0.00,VWS V14.01,2013-05-05 17:19:00,
2013-05-05 10:24:00,61.1,52.4,29.91,SSW,199,5.0,9.0,73,0.00,,---,0.00,VWS V14.01,2013-05-05 17:24:00,
2013-05-05 10:29:00,60.7,51.6,29.91,SW,223,5.0,9.0,72,0.00,,---,0.00,VWS V14.01,2013-05-05 17:29:00,
2013-05-05 10:30:00,60.7,52.0,29.91,SSE,161,4.0,9.0,73,0.00,,---,0.00,VWS V14.01,2013-05-05 17:30:00,
2013-05-05 10:34:00,60.5,52.2,29.91,West,268,7.0,11.0,74,0.00,,---,0.00,VWS V14.01,2013-05-05 17:34:00,
2013-05-05 10:39:00,60.4,52.5,29.91,SSE,167,6.0,11.0,75,0.00,,---,0.00,VWS V14.01,2013-05-05 17:39:00,
2013-05-05 10:44:00,60.3,52.3,29.92,SW,236,6.0,11.0,75,0.00,,---,0.00,VWS V14.01,2013-05-05 17:44:00,
2013-05-05 10:45:00,60.4,52.8,29.92,SW,226,7.0,11.0,76,0.00,,---,0.00,VWS V14.01,2013-05-05 17:45:00,
2013-05-05 10:49:00,60.8,52.8,29.92,SSW,208,7.0,10.0,75,0.00,,---,0.00,VWS V14.01,2013-05-05 17:49:00,
2013-05-05 10:54:00,61.2,52.9,29.92,SW,222,11.0,11.0,74,0.00,,---,0.00,VWS V14.01,2013-05-05 17:54:00,
2013-05-05 10:59:00,61.3,53.0,29.92,SW,227,6.0,11.0,74,0.00,,---,0.00,VWS V14.01,2013-05-05 17:59:00,
2013-05-05 11:00:00,61.2,52.5,29.92,WSW,241,4.0,11.0,73,0.00,,---,0.00,VWS V14.01,2013-05-05 18:00:00,
2013-05-05 11:04:00,60.9,52.2,29.92,SSE,165,8.0,11.0,73,0.00,,---,0.00,VWS V14.01,2013-05-05 18:04:00,
2013-05-05 11:09:00,60.4,52.1,29.92,SW,221,10.0,13.0,74,0.00,,---,0.00,VWS V14.01,2013-05-05 18:09:00,
2013-05-05 11:14:00,59.9,52.0,29.93,SSW,208,8.0,13.0,75,0.00,,---,0.00,VWS V14.01,2013-05-05 18:14:00,
2013-05-05 11:15:00,59.9,52.0,29.93,SW,223,8.0,13.0,75,0.00,,---,0.00,VWS V14.01,2013-05-05 18:15:00,
2013-05-05 11:19:00,59.7,52.1,29.93,SW,215,6.0,12.0,76,0.00,,---,0.00,VWS V14.01,2013-05-05 18:19:00,
2013-05-05 11:24:00,59.6,52.0,29.93,SW,221,9.0,12.0,76,0.00,,---,0.00,VWS V14.01,2013-05-05 18:24:00,
2013-05-05 11:29:00,59.6,52.0,29.93,SSW,213,6.0,12.0,76,0.00,,---,0.00,VWS V14.01,2013-05-05 18:29:00,
2013-05-05 11:30:00,59.7,52.1,29.93,SSW,211,5.0,12.0,76,0.00,,---,0.00,VWS V14.01,2013-05-05 18:30:00,
2013-05-05 11:34:00,59.8,52.2,29.93,WSW,244,5.0,12.0,76,0.00,,---,0.00,VWS V14.01,2013-05-05 18:34:00,
2013-05-05 11:39:00,60.0,52.4,29.93,WSW,237,4.0,12.0,76,0.00,,---,0.00,VWS V14.01,2013-05-05 18:39:00,
2013-05-05 11:44:00,60.2,52.6,29.93,SSW,206,5.0,12.0,76,0.00,,---,0.00,VWS V14.01,2013-05-05 18:44:00,
2013-05-05 11:45:00,60.2,52.6,29.93,SW,227,5.0,12.0,76,0.00,,---,0.00,VWS V14.01,2013-05-05 18:45:00,
2013-05-05 11:49:00,60.4,52.8,29.93,SW,221,4.0,9.0,76,0.00,,---,0.00,VWS V14.01,2013-05-05 18:49:00,
2013-05-05 11:54:00,60.7,52.4,29.93,SW,227,6.0,10.0,74,0.00,,---,0.00,VWS V14.01,2013-05-05 18:54:00,
2013-05-05 11:59:00,60.9,52.2,29.93,SE,142,0.0,11.0,73,0.00,,---,0.00,VWS V14.01,2013-05-05 18:59:00,
2013-05-05 12:00:00,60.9,51.8,29.93,SE,126,0.0,11.0,72,0.00,,---,0.00,VWS V14.01,2013-05-05 19:00:00,
2013-05-05 12:04:00,61.7,53.7,29.92,SW,232,5.0,9.0,75,0.00,,---,0.00,VWS V14.01,2013-05-05 19:04:00,
2013-05-05 12:09:00,62.7,53.5,29.92,SW,234,8.0,10.0,72,0.00,,---,0.00,VWS V14.01,2013-05-05 19:09:00,
2013-05-05 12:14:00,63.0,53.1,29.92,South,169,4.0,10.0,70,0.00,,---,0.00,VWS V14.01,2013-05-05 19:14:00,
2013-05-05 12:15:00,63.0,52.7,29.92,South,190,3.0,10.0,69,0.00,,---,0.00,VWS V14.01,2013-05-05 19:15:00,
2013-05-05 12:19:00,63.0,53.1,29.92,SW,218,4.0,10.0,70,0.00,,---,0.00,VWS V14.01,2013-05-05 19:19:00,
2013-05-05 12:24:00,62.5,52.6,29.92,SW,229,1.0,10.0,70,0.00,,---,0.00,VWS V14.01,2013-05-05 19:24:00,
2013-05-05 12:29:00,62.5,52.6,29.92,SW,225,0.0,12.0,70,0.00,,---,0.00,VWS V14.01,2013-05-05 19:29:00,
2013-05-05 12:30:00,62.5,52.6,29.92,South,179,4.0,12.0,70,0.00,,---,0.00,VWS V14.01,2013-05-05 19:30:00,
2013-05-05 12:34:00,62.9,52.2,29.92,SW,227,6.0,16.0,68,0.00,,---,0.00,VWS V14.01,2013-05-05 19:34:00,
2013-05-05 12:39:00,63.3,52.2,29.92,WSW,252,5.0,16.0,67,0.00,,---,0.00,VWS V14.01,2013-05-05 19:39:00,
2013-05-05 12:44:00,63.2,51.7,29.91,SSW,196,0.0,16.0,66,0.00,,---,0.00,VWS V14.01,2013-05-05 19:44:00,
2013-05-05 12:45:00,63.2,51.7,29.91,SSE,148,3.0,16.0,66,0.00,,---,0.00,VWS V14.01,2013-05-05 19:45:00,
2013-05-05 12:49:00,63.0,51.9,29.92,SSW,199,7.0,9.0,67,0.00,,---,0.00,VWS V14.01,2013-05-05 19:49:00,
2013-05-05 12:54:00,62.4,51.7,29.91,SSW,196,6.0,12.0,68,0.00,,---,0.00,VWS V14.01,2013-05-05 19:54:00,
2013-05-05 13:00:00,61.7,51.4,29.92,SW,226,6.0,12.0,69,0.00,,---,0.00,VWS V14.01,2013-05-05 20:00:00,
2013-05-05 13:05:00,61.1,51.6,29.91,SW,227,13.0,13.0,71,0.00,,---,0.00,VWS V14.01,2013-05-05 20:05:00,
2013-05-05 13:10:00,60.6,51.5,29.91,SSW,194,12.0,14.0,72,0.00,,---,0.00,VWS V14.01,2013-05-05 20:10:00,
2013-05-05 13:15:00,60.4,51.7,29.91,WSW,252,5.0,14.0,73,0.00,,---,0.00,VWS V14.01,2013-05-05 20:15:00,
2013-05-05 13:20:00,60.4,51.7,29.91,South,184,2.0,10.0,73,0.00,,---,0.00,VWS V14.01,2013-05-05 20:20:00,
2013-05-05 13:25:00,60.4,51.3,29.91,SW,232,9.0,12.0,72,0.00,,---,0.00,VWS V14.01,2013-05-05 20:25:00,
2013-05-05 13:30:00,60.4,51.0,29.91,SW,229,4.0,12.0,71,0.00,,---,0.00,VWS V14.01,2013-05-05 20:30:00,
2013-05-05 13:35:00,60.5,51.1,29.91,SSW,202,5.0,12.0,71,0.00,,---,0.00,VWS V14.01,2013-05-05 20:35:00,
2013-05-05 13:40:00,60.6,50.8,29.91,SSW,203,7.0,16.0,70,0.00,,---,0.00,VWS V14.01,2013-05-05 20:40:00,
2013-05-05 13:45:00,60.6,50.8,29.91,South,178,5.0,16.0,70,0.00,,---,0.00,VWS V14.01,2013-05-05 20:45:00,
2013-05-05 13:50:00,60.5,50.7,29.91,SSE,163,4.0,11.0,70,0.00,,---,0.00,VWS V14.01,2013-05-05 20:50:00,
2013-05-05 13:55:00,60.4,50.6,29.92,SSW,204,6.0,11.0,70,0.00,,---,0.00,VWS V14.01,2013-05-05 20:55:00,
2013-05-05 14:00:00,60.3,50.5,29.91,SSW,197,10.0,13.0,70,0.00,,---,0.00,VWS V14.01,2013-05-05 21:00:00,
2013-05-05 14:05:00,60.0,50.2,29.92,SW,231,6.0,15.0,70,0.00,,---,0.00,VWS V14.01,2013-05-05 21:05:00,
2013-05-05 14:10:00,60.0,50.2,29.91,SSW,206,6.0,15.0,70,0.00,,---,0.00,VWS V14.01,2013-05-05 21:10:00,
2013-05-05 14:15:00,59.9,49.7,29.91,SW,223,6.0,15.0,69,0.00,,---,0.00,VWS V14.01,2013-05-05 21:15:00,
2013-05-05 14:20:00,60.0,49.8,29.91,South,184,11.0,15.0,69,0.00,,---,0.00,VWS V14.01,2013-05-05 21:20:00,
2013-05-05 14:25:00,60.4,50.6,29.91,SW,217,3.0,15.0,70,0.00,,---,0.00,VWS V14.01,2013-05-05 21:25:00,
2013-05-05 14:30:00,60.9,50.3,29.91,SW,236,10.0,15.0,68,0.00,,---,0.00,VWS V14.01,2013-05-05 21:30:00,
2013-05-05 14:35:00,61.1,50.5,29.91,SSW,197,0.0,13.0,68,0.00,,---,0.00,VWS V14.01,2013-05-05 21:35:00,
2013-05-05 14:40:00,61.4,50.8,29.91,SSW,209,7.0,15.0,68,0.00,,---,0.00,VWS V14.01,2013-05-05 21:40:00,
2013-05-05 14:45:00,61.5,50.5,29.91,SSW,199,8.0,15.0,67,0.00,,---,0.00,VWS V14.01,2013-05-05 21:45:00,
2013-05-05 14:50:00,61.4,50.0,29.91,SW,221,6.0,13.0,66,0.00,,---,0.00,VWS V14.01,2013-05-05 21:50:00,
2013-05-05 14:55:00,61.3,49.9,29.91,SSW,198,7.0,14.0,66,0.00,,---,0.00,VWS V14.01,2013-05-05 21:55:00,
2013-05-05 15:00:00,61.2,49.8,29.91,SSW,213,4.0,14.0,66,0.00,,---,0.00,VWS V14.01,2013-05-05 22:00:00,
2013-05-05 15:05:00,61.1,50.1,29.91,SW,219,7.0,11.0,67,0.00,,---,0.00,VWS V14.01,2013-05-05 22:05:00,
2013-05-05 15:10:00,61.0,49.6,29.91,South,187,5.0,14.0,66,0.00,,---,0.00,VWS V14.01,2013-05-05 22:10:00,
2013-05-05 15:15:00,60.9,49.5,29.91,SW,229,7.0,15.0,66,0.00,,---,0.00,VWS V14.01,2013-05-05 22:15:00,
2013-05-05 15:20:00,60.8,49.4,29.91,SSW,205,12.0,15.0,66,0.00,,---,0.00,VWS V14.01,2013-05-05 22:20:00,
2013-05-05 15:25:00,60.7,49.3,29.91,SW,234,7.0,15.0,66,0.00,,---,0.00,VWS V14.01,2013-05-05 22:25:00,
2013-05-05 15:30:00,60.8,49.4,29.91,South,188,6.0,8.0,66,0.00,,---,0.00,VWS V14.01,2013-05-05 22:30:00,
2013-05-05 15:35:00,60.9,49.5,29.91,SSW,212,10.0,13.0,66,0.00,,---,0.00,VWS V14.01,2013-05-05 22:35:00,
2013-05-05 15:40:00,60.9,49.9,29.91,SW,226,1.0,15.0,67,0.00,,---,0.00,VWS V14.01,2013-05-05 22:40:00,
2013-05-05 15:45:00,61.0,49.2,29.91,South,185,5.0,5.0,65,0.00,,---,0.00,VWS V14.01,2013-05-05 22:45:00,
2013-05-05 15:51:00,61.1,49.3,29.90,SSE,163,3.0,10.0,65,0.00,,---,0.00,VWS V14.01,2013-05-05 22:51:00,
2013-05-05 15:56:00,61.4,50.0,29.90,SW,219,3.0,11.0,66,0.00,,---,0.00,VWS V14.01,2013-05-05 22:56:00,
2013-05-05 16:00:00,61.7,50.2,29.90,WSW,242,11.0,12.0,66,0.00,,---,0.00,VWS V14.01,2013-05-05 23:00:00,
2013-05-05 16:01:00,61.7,50.2,29.90,SW,225,11.0,11.0,66,0.00,,---,0.00,VWS V14.01,2013-05-05 23:01:00,
2013-05-05 16:06:00,61.6,50.1,29.90,SW,217,4.0,13.0,66,0.00,,---,0.00,VWS V14.01,2013-05-05 23:06:00,
2013-05-05 16:11:00,61.9,50.8,29.90,WSW,238,6.0,13.0,67,0.00,,---,0.00,VWS V14.01,2013-05-05 23:11:00,
2013-05-05 16:15:00,62.2,50.7,29.89,SSW,206,4.0,13.0,66,0.00,,---,0.00,VWS V14.01,2013-05-05 23:15:00,
2013-05-05 16:16:00,62.2,50.7,29.90,SSE,167,10.0,10.0,66,0.00,,---,0.00,VWS V14.01,2013-05-05 23:16:00,
2013-05-05 16:21:00,62.6,51.1,29.89,SW,232,4.0,13.0,66,0.00,,---,0.00,VWS V14.01,2013-05-05 23:21:00,
2013-05-05 16:26:00,62.7,50.4,29.89,SSW,192,6.0,13.0,64,0.00,,---,0.00,VWS V14.01,2013-05-05 23:26:00,
2013-05-05 16:30:00,62.9,51.0,29.89,South,191,0.0,13.0,65,0.00,,---,0.00,VWS V14.01,2013-05-05 23:30:00,
2013-05-05 16:31:00,62.9,51.0,29.89,South,190,0.0,1.0,65,0.00,,---,0.00,VWS V14.01,2013-05-05 23:31:00,
2013-05-05 16:36:00,63.2,51.2,29.89,WSW,238,5.0,11.0,65,0.00,,---,0.00,VWS V14.01,2013-05-05 23:36:00,
2013-05-05 16:41:00,63.2,50.8,29.90,SW,221,7.0,13.0,64,0.00,,---,0.00,VWS V14.01,2013-05-05 23:41:00,
2013-05-05 16:45:00,63.2,51.2,29.90,SSW,201,9.0,14.0,65,0.00,,---,0.00,VWS V14.01,2013-05-05 23:45:00,
2013-05-05 16:46:00,63.2,51.2,29.90,SW,221,11.0,11.0,65,0.00,,---,0.00,VWS V14.01,2013-05-05 23:46:00,
2013-05-05 16:51:00,63.1,50.7,29.90,SW,221,3.0,12.0,64,0.00,,---,0.00,VWS V14.01,2013-05-05 23:51:00,
2013-05-05 16:56:00,63.1,50.7,29.90,SW,227,6.0,13.0,64,0.00,,---,0.00,VWS V14.01,2013-05-05 23:56:00,
2013-05-05 17:00:00,62.7,49.9,29.90,SSW,212,5.0,13.0,63,0.00,,---,0.00,VWS V14.01,2013-05-06 00:00:00,
2013-05-05 17:01:00,62.7,49.9,29.90,SSE,161,7.0,7.0,63,0.00,,---,0.00,VWS V14.01,2013-05-06 00:01:00,
2013-05-05 17:06:00,62.2,49.5,29.90,SSW,195,5.0,12.0,63,0.00,,---,0.00,VWS V14.01,2013-05-06 00:06:00,
2013-05-05 17:11:00,61.8,50.3,29.90,South,188,5.0,12.0,66,0.00,,---,0.00,VWS V14.01,2013-05-06 00:11:00,
2013-05-05 17:15:00,61.4,50.0,29.90,SW,222,7.0,13.0,66,0.00,,---,0.00,VWS V14.01,2013-05-06 00:15:00,
2013-05-05 17:16:00,61.3,49.9,29.90,SW,228,7.0,14.0,66,0.00,,---,0.00,VWS V14.01,2013-05-06 00:16:00,
2013-05-05 17:21:00,60.5,50.3,29.91,SW,217,10.0,15.0,69,0.00,,---,0.00,VWS V14.01,2013-05-06 00:21:00,
2013-05-05 17:26:00,59.9,50.1,29.91,SSW,213,5.0,15.0,70,0.00,,---,0.00,VWS V14.01,2013-05-06 00:26:00,
2013-05-05 17:30:00,59.5,50.1,29.91,SSW,198,4.0,15.0,71,0.00,,---,0.00,VWS V14.01,2013-05-06 00:30:00,
2013-05-05 17:31:00,59.4,50.0,29.91,SSW,205,2.0,6.0,71,0.00,,---,0.00,VWS V14.01,2013-05-06 00:31:00,
2013-05-05 17:36:00,59.2,50.2,29.91,SW,228,6.0,11.0,72,0.00,,---,0.00,VWS V14.01,2013-05-06 00:36:00,
2013-05-05 17:41:00,59.0,50.7,29.91,SW,229,8.0,11.0,74,0.00,,---,0.00,VWS V14.01,2013-05-06 00:41:00,
2013-05-05 17:45:00,58.7,51.2,29.91,South,176,3.0,11.0,76,0.00,,---,0.00,VWS V14.01,2013-05-06 00:45:00,
2013-05-05 17:46:00,58.7,51.2,29.91,South,176,1.0,3.0,76,0.00,,---,0.00,VWS V14.01,2013-05-06 00:46:00,
2013-05-05 17:51:00,58.2,50.7,29.91,SW,225,0.0,7.0,76,0.00,,---,0.00,VWS V14.01,2013-05-06 00:51:00,
2013-05-05 17:56:00,57.9,50.4,29.91,South,188,6.0,9.0,76,0.00,,---,0.00,VWS V14.01,2013-05-06 00:56:00,
2013-05-05 18:00:00,57.7,50.2,29.91,South,178,0.0,9.0,76,0.00,,---,0.00,VWS V14.01,2013-05-06 01:00:00,
2013-05-05 18:01:00,57.7,50.2,29.91,SW,220,7.0,7.0,76,0.00,,---,0.00,VWS V14.01,2013-05-06 01:01:00,
2013-05-05 18:06:00,57.5,49.7,29.91,SSE,155,3.0,12.0,75,0.00,,---,0.00,VWS V14.01,2013-05-06 01:06:00,
2013-05-05 18:11:00,57.5,49.7,29.91,South,173,5.0,12.0,75,0.00,,---,0.00,VWS V14.01,2013-05-06 01:11:00,
2013-05-05 18:15:00,57.4,49.5,29.92,South,188,3.0,12.0,75,0.00,,---,0.00,VWS V14.01,2013-05-06 01:15:00,
2013-05-05 18:16:00,57.4,49.5,29.92,SSW,206,1.0,6.0,75,0.00,,---,0.00,VWS V14.01,2013-05-06 01:16:00,
2013-05-05 18:21:00,57.4,49.5,29.92,SSE,159,8.0,8.0,75,0.00,,---,0.00,VWS V14.01,2013-05-06 01:21:00,
2013-05-05 18:26:00,57.3,49.5,29.92,SSW,192,0.0,9.0,75,0.00,,---,0.00,VWS V14.01,2013-05-06 01:26:00,
2013-05-05 18:30:00,57.3,49.5,29.92,South,180,0.0,9.0,75,0.00,,---,0.00,VWS V14.01,2013-05-06 01:30:00,
2013-05-05 18:31:00,57.3,49.5,29.92,SSE,167,6.0,10.0,75,0.00,,---,0.00,VWS V14.01,2013-05-06 01:31:00,
2013-05-05 18:36:00,57.2,49.0,29.92,SSE,152,7.0,10.0,74,0.00,,---,0.00,VWS V14.01,2013-05-06 01:36:00,
2013-05-05 18:41:00,57.2,49.4,29.92,South,178,0.0,10.0,75,0.00,,---,0.00,VWS V14.01,2013-05-06 01:41:00,
2013-05-05 18:45:00,57.2,49.7,29.92,SSE,167,9.0,11.0,76,0.00,,---,0.00,VWS V14.01,2013-05-06 01:45:00,
2013-05-05 18:46:00,57.1,49.6,29.92,South,171,5.0,9.0,76,0.00,,---,0.00,VWS V14.01,2013-05-06 01:46:00,
2013-05-05 18:51:00,57.1,49.6,29.92,South,174,6.0,10.0,76,0.00,,---,0.00,VWS V14.01,2013-05-06 01:51:00,
2013-05-05 18:56:00,57.1,50.0,29.92,SSW,212,1.0,10.0,77,0.00,,---,0.00,VWS V14.01,2013-05-06 01:56:00,
2013-05-05 19:00:00,57.0,49.9,29.92,South,183,4.0,10.0,77,0.00,,---,0.00,VWS V14.01,2013-05-06 02:00:00,
2013-05-05 19:01:00,57.0,49.9,29.92,South,173,0.0,6.0,77,0.00,,---,0.00,VWS V14.01,2013-05-06 02:01:00,
2013-05-05 19:06:00,57.0,49.9,29.92,SSE,150,0.0,6.0,77,0.00,,---,0.00,VWS V14.01,2013-05-06 02:06:00,
2013-05-05 19:11:00,56.9,49.4,29.92,SSE,160,6.0,10.0,76,0.00,,---,0.00,VWS V14.01,2013-05-06 02:11:00,
2013-05-05 19:15:00,56.9,49.4,29.92,SSE,163,7.0,10.0,76,0.00,,---,0.00,VWS V14.01,2013-05-06 02:15:00,
2013-05-05 19:16:00,56.9,49.4,29.92,South,184,5.0,7.0,76,0.00,,---,0.00,VWS V14.01,2013-05-06 02:16:00,
2013-05-05 19:21:00,56.8,49.3,29.92,SSE,151,4.0,9.0,76,0.00,,---,0.00,VWS V14.01,2013-05-06 02:21:00,
2013-05-05 19:26:00,56.7,49.2,29.92,SSW,213,6.0,9.0,76,0.00,,---,0.00,VWS V14.01,2013-05-06 02:26:00,
2013-05-05 19:30:00,56.6,49.1,29.92,SSE,168,0.0,9.0,76,0.00,,---,0.00,VWS V14.01,2013-05-06 02:30:00,
2013-05-05 19:31:00,56.6,49.1,29.92,South,169,3.0,5.0,76,0.00,,---,0.00,VWS V14.01,2013-05-06 02:31:00,
2013-05-05 19:36:00,56.5,49.0,29.92,SSE,152,0.0,5.0,76,0.00,,---,0.00,VWS V14.01,2013-05-06 02:36:00,
2013-05-05 19:41:00,56.5,49.0,29.92,SSE,157,2.0,5.0,76,0.00,,---,0.00,VWS V14.01,2013-05-06 02:41:00,
2013-05-05 19:45:00,56.5,49.4,29.92,SSE,164,3.0,5.0,77,0.00,,---,0.00,VWS V14.01,2013-05-06 02:45:00,
2013-05-05 19:46:00,56.5,49.4,29.92,SE,136,0.0,5.0,77,0.00,,---,0.00,VWS V14.01,2013-05-06 02:46:00,
2013-05-05 19:51:00,56.5,49.4,29.92,SSE,164,0.0,5.0,77,0.00,,---,0.00,VWS V14.01,2013-05-06 02:51:00,
2013-05-05 19:56:00,56.4,49.3,29.91,SE,134,0.0,5.0,77,0.00,,---,0.00,VWS V14.01,2013-05-06 02:56:00,
2013-05-05 20:00:00,56.5,49.4,29.91,ESE,106,0.0,7.0,77,0.00,,---,0.00,VWS V14.01,2013-05-06 03:00:00,
2013-05-05 20:01:00,56.5,49.4,29.91,SE,136,0.0,2.0,77,0.00,,---,0.00,VWS V14.01,2013-05-06 03:01:00,
2013-05-05 20:06:00,56.5,49.0,29.92,SE,132,0.0,4.0,76,0.00,,---,0.00,VWS V14.01,2013-05-06 03:06:00,
2013-05-05 20:12:00,56.6,49.1,29.92,ESE,107,0.0,7.0,76,0.00,,---,0.00,VWS V14.01,2013-05-06 03:12:00,
2013-05-05 20:15:00,56.6,49.1,29.92,SSE,157,1.0,7.0,76,0.00,,---,0.00,VWS V14.01,2013-05-06 03:15:00,
2013-05-05 20:16:00,56.6,49.1,29.92,SE,145,3.0,5.0,76,0.00,,---,0.00,VWS V14.01,2013-05-06 03:16:00,
2013-05-05 20:22:00,56.6,49.1,29.92,SE,131,0.0,5.0,76,0.00,,---,0.00,VWS V14.01,2013-05-06 03:22:00,
2013-05-05 20:27:00,56.6,49.1,29.93,SSE,154,2.0,5.0,76,0.00,,---,0.00,VWS V14.01,2013-05-06 03:27:00,
2013-05-05 20:30:00,56.5,49.0,29.93,SSE,154,3.0,5.0,76,0.00,,---,0.00,VWS V14.01,2013-05-06 03:30:00,
2013-05-05 20:32:00,56.5,49.0,29.93,SSE,153,0.0,4.0,76,0.00,,---,0.00,VWS V14.01,2013-05-06 03:32:00,
2013-05-05 20:37:00,56.5,49.0,29.93,SSE,164,1.0,4.0,76,0.00,,---,0.00,VWS V14.01,2013-05-06 03:37:00,
2013-05-05 20:42:00,56.4,49.3,29.93,SSE,165,0.0,4.0,77,0.00,,---,0.00,VWS V14.01,2013-05-06 03:42:00,
2013-05-05 20:45:00,56.3,49.2,29.93,SSE,163,1.0,4.0,77,0.00,,---,0.00,VWS V14.01,2013-05-06 03:45:00,
2013-05-05 20:47:00,56.3,49.2,29.93,SSE,163,1.0,1.0,77,0.00,,---,0.00,VWS V14.01,2013-05-06 03:47:00,
2013-05-05 20:52:00,56.2,49.1,29.93,SSE,163,0.0,2.0,77,0.00,,---,0.00,VWS V14.01,2013-05-06 03:52:00,
2013-05-05 20:57:00,56.2,49.1,29.93,ESE,114,0.0,4.0,77,0.00,,---,0.00,VWS V14.01,2013-05-06 03:57:00,
2013-05-05 21:00:00,56.2,49.1,29.93,ESE,119,0.0,4.0,77,0.00,,---,0.00,VWS V14.01,2013-05-06 04:00:00,
2013-05-05 21:01:00,56.2,49.1,29.92,ESE,119,0.0,0.0,77,0.00,,---,0.00,VWS V14.01,2013-05-06 04:01:00,
2013-05-05 21:06:00,56.2,49.1,29.92,ESE,115,0.0,2.0,77,0.00,,---,0.00,VWS V14.01,2013-05-06 04:06:00,
2013-05-05 21:11:00,56.2,49.1,29.92,ESE,113,2.0,3.0,77,0.00,,---,0.00,VWS V14.01,2013-05-06 04:11:00,
2013-05-05 21:15:00,56.2,49.1,29.92,ESE,106,0.0,4.0,77,0.00,,---,0.00,VWS V14.01,2013-05-06 04:15:00,
2013-05-05 21:16:00,56.2,49.1,29.92,ESE,107,2.0,3.0,77,0.00,,---,0.00,VWS V14.01,2013-05-06 04:16:00,
2013-05-05 21:21:00,56.2,49.1,29.92,ESE,106,3.0,3.0,77,0.00,,---,0.00,VWS V14.01,2013-05-06 04:21:00,
2013-05-05 21:26:00,56.3,49.2,29.93,ESE,111,2.0,6.0,77,0.00,,---,0.00,VWS V14.01,2013-05-06 04:26:00,
2013-05-05 21:30:00,56.3,49.2,29.93,East,97,0.0,6.0,77,0.00,,---,0.00,VWS V14.01,2013-05-06 04:30:00,
2013-05-05 21:31:00,56.3,49.2,29.93,East,98,0.0,3.0,77,0.00,,---,0.00,VWS V14.01,2013-05-06 04:31:00,
2013-05-05 21:36:00,56.4,49.3,29.93,East,98,0.0,4.0,77,0.00,,---,0.00,VWS V14.01,2013-05-06 04:36:00,
2013-05-05 21:41:00,56.4,49.3,29.93,East,100,0.0,4.0,77,0.00,,---,0.00,VWS V14.01,2013-05-06 04:41:00,
2013-05-05 21:45:00,56.5,49.4,29.93,East,98,0.0,4.0,77,0.00,,---,0.00,VWS V14.01,2013-05-06 04:45:00,
2013-05-05 21:47:00,56.5,49.4,29.93,East,99,0.0,2.0,77,0.00,,---,0.00,VWS V14.01,2013-05-06 04:47:00,
2013-05-05 21:52:00,56.6,49.5,29.93,East,100,0.0,3.0,77,0.00,,---,0.00,VWS V14.01,2013-05-06 04:52:00,
2013-05-05 21:57:00,56.6,49.1,29.93,East,98,3.0,5.0,76,0.00,,---,0.00,VWS V14.01,2013-05-06 04:57:00,
2013-05-05 22:00:00,56.7,49.2,29.93,East,100,0.0,5.0,76,0.00,,---,0.00,VWS V14.01,2013-05-06 05:00:00,
2013-05-05 22:02:00,56.7,49.2,29.93,East,99,0.0,3.0,76,0.00,,---,0.00,VWS V14.01,2013-05-06 05:02:00,
2013-05-05 22:07:00,56.7,49.2,29.93,East,99,1.0,3.0,76,0.00,,---,0.00,VWS V14.01,2013-05-06 05:07:00,
2013-05-05 22:12:00,56.8,49.3,29.93,ESE,122,0.0,3.0,76,0.00,,---,0.00,VWS V14.01,2013-05-06 05:12:00,
2013-05-05 22:15:00,56.8,49.3,29.93,SE,129,1.0,3.0,76,0.00,,---,0.00,VWS V14.01,2013-05-06 05:15:00,
2013-05-05 22:17:00,56.8,49.3,29.93,SE,129,0.0,1.0,76,0.00,,---,0.00,VWS V14.01,2013-05-06 05:17:00,
2013-05-05 22:22:00,56.9,49.4,29.93,SE,128,0.0,3.0,76,0.00,,---,0.00,VWS V14.01,2013-05-06 05:22:00,
2013-05-05 22:27:00,56.8,49.3,29.93,ESE,119,2.0,3.0,76,0.00,,---,0.00,VWS V14.01,2013-05-06 05:27:00,
2013-05-05 22:30:00,56.9,49.1,29.93,SE,124,2.0,8.0,75,0.00,,---,0.00,VWS V14.01,2013-05-06 05:30:00,
2013-05-05 22:32:00,56.9,49.1,29.93,SE,144,0.0,2.0,75,0.00,,---,0.00,VWS V14.01,2013-05-06 05:32:00,
2013-05-05 22:37:00,56.8,49.0,29.93,SE,136,0.0,7.0,75,0.00,,---,0.00,VWS V14.01,2013-05-06 05:37:00,
2013-05-05 22:42:00,56.8,49.0,29.93,SE,126,1.0,7.0,75,0.00,,---,0.00,VWS V14.01,2013-05-06 05:42:00,
2013-05-05 22:45:00,56.8,49.3,29.93,SE,138,0.0,7.0,76,0.00,,---,0.00,VWS V14.01,2013-05-06 05:45:00,
2013-05-05 22:47:00,56.8,49.3,29.93,SE,146,0.0,4.0,76,0.00,,---,0.00,VWS V14.01,2013-05-06 05:47:00,
2013-05-05 22:52:00,56.7,49.6,29.93,SSE,157,0.0,9.0,77,0.00,,---,0.00,VWS V14.01,2013-05-06 05:52:00,
2013-05-05 22:57:00,56.6,50.2,29.93,South,186,0.0,9.0,79,0.00,,---,0.00,VWS V14.01,2013-05-06 05:57:00,
2013-05-05 23:00:00,56.5,50.1,29.93,SSE,148,0.0,9.0,79,0.00,,---,0.00,VWS V14.01,2013-05-06 06:00:00,
2013-05-05 23:02:00,56.4,50.0,29.93,SSE,156,2.0,5.0,79,0.00,,---,0.00,VWS V14.01,2013-05-06 06:02:00,
2013-05-05 23:07:00,56.2,49.8,29.93,SE,140,0.0,5.0,79,0.00,,---,0.00,VWS V14.01,2013-05-06 06:07:00,
2013-05-05 23:12:00,56.1,50.0,29.93,East,87,4.0,5.0,80,0.00,,---,0.00,VWS V14.01,2013-05-06 06:12:00,
2013-05-05 23:15:00,56.0,49.9,29.93,East,87,0.0,5.0,80,0.00,,---,0.00,VWS V14.01,2013-05-06 06:15:00,
2013-05-05 23:17:00,56.0,49.9,29.93,East,86,0.0,0.0,80,0.00,,---,0.00,VWS V14.01,2013-05-06 06:17:00,
2013-05-05 23:22:00,55.9,49.8,29.93,SE,133,4.0,6.0,80,0.00,,---,0.00,VWS V14.01,2013-05-06 06:22:00,
2013-05-05 23:27:00,55.9,49.8,29.93,SSE,149,3.0,6.0,80,0.00,,---,0.00,VWS V14.01,2013-05-06 06:27:00,
2013-05-05 23:30:00,55.9,49.8,29.93,SSE,148,1.0,6.0,80,0.00,,---,0.00,VWS V14.01,2013-05-06 06:30:00,
2013-05-05 23:32:00,56.0,49.9,29.93,SSE,149,2.0,2.0,80,0.00,,---,0.00,VWS V14.01,2013-05-06 06:32:00,
2013-05-05 23:37:00,56.0,49.9,29.93,SSE,156,4.0,6.0,80,0.00,,---,0.00,VWS V14.01,2013-05-06 06:37:00,
2013-05-05 23:42:00,56.1,50.0,29.93,SE,142,0.0,6.0,80,0.00,,---,0.00,VWS V14.01,2013-05-06 06:42:00,
2013-05-05 23:45:00,56.1,49.7,29.93,ESE,123,0.0,6.0,79,0.00,,---,0.00,VWS V14.01,2013-05-06 06:45:00,
2013-05-05 23:47:00,56.1,49.7,29.93,SE,143,2.0,6.0,79,0.00,,---,0.00,VWS V14.01,2013-05-06 06:47:00,
2013-05-05 23:52:00,56.2,49.8,29.93,SE,136,0.0,6.0,79,0.00,,---,0.00,VWS V14.01,2013-05-06 06:52:00,
2013-05-05 23:57:00,56.2,50.1,29.93,SE,142,2.0,6.0,80,0.00,,---,0.00,VWS V14.01,2013-05-06 06:57:00,